Time,TemperatureF,DewpointF,PressureIn,WindDirection,WindDirectionDegrees,WindSpeedMPH,WindSpeedGustMPH,Humidity,HourlyPrecipIn,Conditions,Clouds,dailyrainin,SoftwareType,DateUTC
2013-11-21 02:48:00,44.3,33.3,30.48,West,259,2.0,2.0,65,0.00,,,0.00,Wunderground v.1.15,2013-11-21 07:48:00,
2013-11-21 02:49:00,44.4,33.4,30.49,WSW,252,2.0,2.0,65,0.00,,,0.00,Wunderground v.1.15,2013-11-21 07:49:00,
2013-11-21 02:51:00,44.4,33.7,30.49,WNW,294,1.0,2.0,66,0.00,,,0.00,Wunderground v.1.15,2013-11-21 07:51:00,
2013-11-21 02:52:00,44.4,33.7,30.48,WSW,257,1.0,3.0,66,0.00,,,0.00,Wunderground v.1.15,2013-11-21 07:52:00,
2013-11-21 02:53:00,44.4,33.7,30.48,WSW,257,1.0,3.0,66,0.00,,,0.00,Wunderground v.1.15,2013-11-21 07:53:00,
2013-11-21 02:59:00,44.3,33.3,30.48,SW,234,1.0,6.0,65,0.00,,,0.00,Wunderground v.1.15,2013-11-21 07:59:00,
2013-11-21 03:05:00,44.2,33.2,30.48,SSW,211,2.0,4.0,65,0.00,,,0.00,Wunderground v.1.15,2013-11-21 08:05:00,
2013-11-21 03:10:00,44.1,33.1,30.48,WNW,284,1.0,1.0,65,0.00,,,0.00,Wunderground v.1.15,2013-11-21 08:10:00,
2013-11-21 03:16:00,44.1,33.8,30.48,SSW,202,1.0,2.0,67,0.00,,,0.00,Wunderground v.1.15,2013-11-21 08:16:00,
2013-11-21 03:21:00,44.1,33.8,30.48,WNW,296,0.0,0.0,67,0.00,,,0.00,Wunderground v.1.15,2013-11-21 08:21:00,
2013-11-21 03:27:00,44.2,34.7,30.48,SW,223,1.0,4.0,69,0.00,,,0.00,Wunderground v.1.15,2013-11-21 08:27:00,
2013-11-21 03:33:00,44.4,34.9,30.48,SE,134,1.0,2.0,69,0.00,,,0.00,Wunderground v.1.15,2013-11-21 08:33:00,
2013-11-21 03:39:00,44.4,34.9,30.48,SSW,200,1.0,2.0,69,0.00,,,0.00,Wunderground v.1.15,2013-11-21 08:39:00,
2013-11-21 03:45:00,44.5,35.7,30.48,SSW,202,1.0,4.0,71,0.00,,,0.00,Wunderground v.1.15,2013-11-21 08:45:00,
2013-11-21 03:50:00,44.6,35.4,30.48,SSE,159,1.0,3.0,70,0.00,,,0.00,Wunderground v.1.15,2013-11-21 08:50:00,
2013-11-21 03:56:00,44.6,35.4,30.47,South,180,1.0,3.0,70,0.00,,,0.00,Wunderground v.1.15,2013-11-21 08:56:00,
2013-11-21 04:01:00,44.8,35.6,30.48,SW,225,2.0,3.0,70,0.00,,,0.00,Wunderground v.1.15,2013-11-21 09:01:00,
2013-11-21 04:07:00,44.9,35.7,30.48,SSW,209,2.0,3.0,70,0.00,,,0.00,Wunderground v.1.15,2013-11-21 09:07:00,
2013-11-21 04:13:00,45.0,36.2,30.48,SSW,205,2.0,3.0,71,0.00,,,0.00,Wunderground v.1.15,2013-11-21 09:13:00,
2013-11-21 04:19:00,45.0,36.2,30.48,SW,223,2.0,5.0,71,0.00,,,0.00,Wunderground v.1.15,2013-11-21 09:19:00,
2013-11-21 04:25:00,44.9,36.1,30.48,South,183,1.0,2.0,71,0.00,,,0.00,Wunderground v.1.15,2013-11-21 09:25:00,
2013-11-21 04:30:00,44.8,36.0,30.48,South,189,0.0,0.0,71,0.00,,,0.00,Wunderground v.1.15,2013-11-21 09:30:00,
2013-11-21 04:35:00,44.8,36.0,30.48,South,173,1.0,3.0,71,0.00,,,0.00,Wunderground v.1.15,2013-11-21 09:35:00,
2013-11-21 04:40:00,44.9,36.4,30.48,SW,217,2.0,2.0,72,0.00,,,0.00,Wunderground v.1.15,2013-11-21 09:40:00,
2013-11-21 04:48:00,45.0,36.9,30.48,WNW,292,2.0,2.0,73,0.00,,,0.00,Wunderground v.1.15,2013-11-21 09:48:00,
2013-11-21 04:54:00,45.0,37.2,30.48,WSW,256,1.0,3.0,74,0.00,,,0.00,Wunderground v.1.15,2013-11-21 09:54:00,
2013-11-21 05:00:00,45.1,37.6,30.48,ESE,121,1.0,1.0,75,0.00,,,0.00,Wunderground v.1.15,2013-11-21 10:00:00,
2013-11-21 05:06:00,45.3,37.8,30.48,West,273,1.0,3.0,75,0.00,,,0.00,Wunderground v.1.15,2013-11-21 10:06:00,
2013-11-21 05:11:00,45.5,38.4,30.47,WNW,287,2.0,2.0,76,0.00,,,0.00,Wunderground v.1.15,2013-11-21 10:11:00,
2013-11-21 05:16:00,45.6,38.5,30.47,NE,40,2.0,10.0,76,0.00,,,0.00,Wunderground v.1.15,2013-11-21 10:16:00,
2013-11-21 05:22:00,45.7,38.6,30.48,WNW,296,1.0,2.0,76,0.00,,,0.00,Wunderground v.1.15,2013-11-21 10:22:00,
2013-11-21 05:28:00,45.8,39.0,30.47,South,176,1.0,2.0,77,0.00,,,0.00,Wunderground v.1.15,2013-11-21 10:28:00,
2013-11-21 05:33:00,45.9,39.4,30.47,ESE,108,1.0,3.0,78,0.00,,,0.00,Wunderground v.1.15,2013-11-21 10:33:00,
2013-11-21 05:39:00,46.2,40.0,30.47,North,355,2.0,3.0,79,0.00,,,0.00,Wunderground v.1.15,2013-11-21 10:39:00,
2013-11-21 05:45:00,46.4,40.6,30.47,NE,35,2.0,6.0,80,0.00,,,0.00,Wunderground v.1.15,2013-11-21 10:45:00,
2013-11-21 05:51:00,46.6,40.8,30.47,North,355,1.0,4.0,80,0.00,,,0.00,Wunderground v.1.15,2013-11-21 10:51:00,
2013-11-21 05:56:00,46.7,40.5,30.47,North,9,1.0,4.0,79,0.00,,,0.00,Wunderground v.1.15,2013-11-21 10:56:00,
2013-11-21 06:01:00,46.7,40.9,30.47,ENE,59,1.0,1.0,80,0.00,,,0.00,Wunderground v.1.15,2013-11-21 11:01:00,
2013-11-21 06:07:00,47.0,41.5,30.47,ENE,67,1.0,2.0,81,0.00,,,0.00,Wunderground v.1.15,2013-11-21 11:07:00,
2013-11-21 06:13:00,46.8,40.0,30.46,SSE,159,1.0,2.0,77,0.00,,,0.00,Wunderground v.1.15,2013-11-21 11:13:00,
2013-11-21 06:19:00,46.7,40.9,30.46,WNW,290,1.0,2.0,80,0.00,,,0.00,Wunderground v.1.15,2013-11-21 11:19:00,
2013-11-21 06:25:00,46.7,40.9,30.46,West,263,1.0,2.0,80,0.00,,,0.00,Wunderground v.1.15,2013-11-21 11:25:00,
2013-11-21 06:31:00,46.8,41.0,30.46,West,263,0.0,0.0,80,0.00,,,0.00,Wunderground v.1.15,2013-11-21 11:31:00,
2013-11-21 06:37:00,46.6,40.1,30.46,SW,235,0.0,1.0,78,0.00,,,0.00,Wunderground v.1.15,2013-11-21 11:37:00,
2013-11-21 06:42:00,46.5,40.0,30.46,SW,235,0.0,1.0,78,0.00,,,0.00,Wunderground v.1.15,2013-11-21 11:42:00,
2013-11-21 06:48:00,46.3,40.1,30.46,SW,236,0.0,0.0,79,0.00,,,0.00,Wunderground v.1.15,2013-11-21 11:48:00,
2013-11-21 06:54:00,46.0,39.2,30.46,SW,232,0.0,1.0,77,0.00,,,0.00,Wunderground v.1.15,2013-11-21 11:54:00,
2013-11-21 07:00:00,45.7,38.9,30.47,SW,232,0.0,1.0,77,0.00,,,0.00,Wunderground v.1.15,2013-11-21 12:00:00,
2013-11-21 07:06:00,45.8,39.3,30.47,South,171,1.0,2.0,78,0.00,,,0.00,Wunderground v.1.15,2013-11-21 12:06:00,
2013-11-21 07:12:00,45.8,40.0,30.47,South,169,1.0,2.0,80,0.00,,,0.00,Wunderground v.1.15,2013-11-21 12:12:00,
2013-11-21 07:17:00,45.8,39.0,30.48,SSE,168,1.0,2.0,77,0.00,,,0.00,Wunderground v.1.15,2013-11-21 12:17:00,
2013-11-21 07:23:00,45.3,38.2,30.49,SSE,153,1.0,1.0,76,0.00,,,0.00,Wunderground v.1.15,2013-11-21 12:23:00,
2013-11-21 07:29:00,45.0,38.2,30.49,ESE,103,1.0,1.0,77,0.00,,,0.00,Wunderground v.1.15,2013-11-21 12:29:00,
2013-11-21 07:35:00,44.8,38.0,30.49,ESE,103,0.0,1.0,77,0.00,,,0.00,Wunderground v.1.15,2013-11-21 12:35:00,
2013-11-21 07:41:00,44.7,38.3,30.49,ESE,103,0.0,0.0,78,0.00,,,0.00,Wunderground v.1.15,2013-11-21 12:41:00,
2013-11-21 07:48:00,44.6,38.2,30.49,ESE,103,0.0,0.0,78,0.00,,,0.00,Wunderground v.1.15,2013-11-21 12:48:00,
2013-11-21 07:54:00,44.6,38.2,30.49,ESE,103,0.0,0.0,78,0.00,,,0.00,Wunderground v.1.15,2013-11-21 12:54:00,
2013-11-21 07:59:00,44.7,38.3,30.49,WNW,302,0.0,2.0,78,0.00,,,0.00,Wunderground v.1.15,2013-11-21 12:59:00,
2013-11-21 08:04:00,44.9,39.1,30.49,ENE,61,0.0,1.0,80,0.00,,,0.00,Wunderground v.1.15,2013-11-21 13:04:00,
2013-11-21 08:10:00,45.6,40.4,30.49,WNW,299,1.0,1.0,82,0.00,,,0.00,Wunderground v.1.15,2013-11-21 13:10:00,
2013-11-21 08:16:00,46.3,42.0,30.48,SSE,165,1.0,2.0,85,0.00,,,0.00,Wunderground v.1.15,2013-11-21 13:16:00,
2013-11-21 08:22:00,47.0,42.4,30.48,SSW,208,1.0,2.0,84,0.00,,,0.00,Wunderground v.1.15,2013-11-21 13:22:00,
2013-11-21 08:28:00,47.6,42.7,30.48,WNW,288,1.0,3.0,83,0.00,,,0.00,Wunderground v.1.15,2013-11-21 13:28:00,
2013-11-21 08:33:00,47.8,42.6,30.48,South,184,1.0,2.0,82,0.00,,,0.00,Wunderground v.1.15,2013-11-21 13:33:00,
2013-11-21 08:38:00,47.6,41.7,30.49,SE,145,1.0,2.0,80,0.00,,,0.00,Wunderground v.1.15,2013-11-21 13:38:00,
2013-11-21 08:44:00,46.8,40.0,30.49,SE,142,1.0,1.0,77,0.00,,,0.00,Wunderground v.1.15,2013-11-21 13:44:00,
2013-11-21 08:50:00,45.8,40.3,30.49,SE,144,0.0,1.0,81,0.00,,,0.01,Wunderground v.1.15,2013-11-21 13:50:00,
2013-11-21 08:56:00,45.0,40.8,30.49,SE,144,0.0,2.0,85,0.00,,,0.01,Wunderground v.1.15,2013-11-21 13:56:00,
2013-11-21 09:02:00,44.3,40.4,30.49,SE,144,0.0,0.0,86,0.05,,,0.02,Wunderground v.1.15,2013-11-21 14:02:00,
2013-11-21 09:07:00,44.0,40.7,30.49,SE,144,0.0,1.0,88,0.05,,,0.02,Wunderground v.1.15,2013-11-21 14:07:00,
2013-11-21 09:12:00,43.7,40.7,30.49,SE,144,0.0,0.0,89,0.05,,,0.02,Wunderground v.1.15,2013-11-21 14:12:00,
2013-11-21 09:18:00,43.5,40.8,30.49,SE,144,0.0,0.0,90,0.04,,,0.02,Wunderground v.1.15,2013-11-21 14:18:00,
2013-11-21 09:24:00,43.4,40.9,30.49,SE,144,0.0,0.0,91,0.00,,,0.02,Wunderground v.1.15,2013-11-21 14:24:00,
2013-11-21 09:29:00,43.4,41.2,30.49,SE,144,0.0,2.0,92,0.00,,,0.02,Wunderground v.1.15,2013-11-21 14:29:00,
2013-11-21 09:35:00,43.2,41.0,30.50,East,93,1.0,2.0,92,0.00,,,0.02,Wunderground v.1.15,2013-11-21 14:35:00,
2013-11-21 09:41:00,43.1,40.9,30.50,East,93,0.0,1.0,92,0.00,,,0.02,Wunderground v.1.15,2013-11-21 14:41:00,
2013-11-21 09:48:00,43.0,40.8,30.50,East,93,0.0,0.0,92,0.00,,,0.02,Wunderground v.1.15,2013-11-21 14:48:00,
2013-11-21 09:54:00,43.2,41.3,30.50,East,93,0.0,0.0,93,0.00,,,0.02,Wunderground v.1.15,2013-11-21 14:54:00,
2013-11-21 10:00:00,43.2,41.3,30.50,East,98,0.0,1.0,93,0.00,,,0.02,Wunderground v.1.15,2013-11-21 15:00:00,
2013-11-21 10:06:00,43.3,41.4,30.50,East,99,0.0,1.0,93,0.00,,,0.02,Wunderground v.1.15,2013-11-21 15:06:00,
2013-11-21 10:12:00,43.4,41.8,30.51,East,99,0.0,1.0,94,0.00,,,0.02,Wunderground v.1.15,2013-11-21 15:12:00,
2013-11-21 10:18:00,43.6,42.0,30.51,East,99,0.0,1.0,94,0.00,,,0.02,Wunderground v.1.15,2013-11-21 15:18:00,
2013-11-21 10:24:00,43.9,42.6,30.50,NE,50,0.0,1.0,95,0.00,,,0.02,Wunderground v.1.15,2013-11-21 15:24:00,
2013-11-21 10:30:00,44.7,43.4,30.50,SSE,164,0.0,2.0,95,0.00,,,0.02,Wunderground v.1.15,2013-11-21 15:30:00,
2013-11-21 10:36:00,45.9,44.8,30.50,ENE,64,1.0,2.0,96,0.00,,,0.02,Wunderground v.1.15,2013-11-21 15:36:00,
2013-11-21 10:42:00,47.2,46.1,30.50,NNE,29,1.0,2.0,96,0.00,,,0.02,Wunderground v.1.15,2013-11-21 15:42:00,
2013-11-21 10:48:00,48.5,47.4,30.49,NW,306,2.0,2.0,96,0.00,,,0.02,Wunderground v.1.15,2013-11-21 15:48:00,
2013-11-21 10:54:00,48.8,47.7,30.49,WNW,294,1.0,3.0,96,0.00,,,0.02,Wunderground v.1.15,2013-11-21 15:54:00,
2013-11-21 10:59:00,49.2,47.8,30.49,North,9,1.0,1.0,95,0.00,,,0.02,Wunderground v.1.15,2013-11-21 15:59:00,
2013-11-21 11:04:00,49.5,47.8,30.48,NNW,327,1.0,1.0,94,0.00,,,0.02,Wunderground v.1.15,2013-11-21 16:04:00,
2013-11-21 11:10:00,50.0,48.1,30.48,WNW,288,1.0,1.0,93,0.00,,,0.02,Wunderground v.1.15,2013-11-21 16:10:00,
2013-11-21 11:16:00,50.4,48.2,30.48,West,259,2.0,4.0,92,0.00,,,0.02,Wunderground v.1.15,2013-11-21 16:16:00,
2013-11-21 11:21:00,50.6,48.1,30.48,NE,55,2.0,2.0,91,0.00,,,0.02,Wunderground v.1.15,2013-11-21 16:21:00,
2013-11-21 11:27:00,50.9,48.7,30.47,NE,38,1.0,2.0,92,0.00,,,0.02,Wunderground v.1.15,2013-11-21 16:27:00,
2013-11-21 11:33:00,50.6,47.8,30.47,WSW,241,2.0,3.0,90,0.00,,,0.02,Wunderground v.1.15,2013-11-21 16:33:00,
2013-11-21 11:39:00,50.0,47.5,30.46,South,174,2.0,3.0,91,0.00,,,0.02,Wunderground v.1.15,2013-11-21 16:39:00,
2013-11-21 11:45:00,49.7,47.5,30.46,South,172,1.0,2.0,92,0.00,,,0.02,Wunderground v.1.15,2013-11-21 16:45:00,
2013-11-21 11:50:00,49.6,47.7,30.45,East,91,1.0,2.0,93,0.00,,,0.02,Wunderground v.1.15,2013-11-21 16:50:00,
2013-11-21 11:56:00,49.2,47.0,30.45,SE,134,1.0,5.0,92,0.00,,,0.02,Wunderground v.1.15,2013-11-21 16:56:00,
2013-11-21 12:01:00,48.7,46.5,30.45,SE,134,1.0,1.0,92,0.00,,,0.02,Wunderground v.1.15,2013-11-21 17:01:00,
2013-11-21 12:07:00,48.2,46.3,30.45,SE,134,1.0,1.0,93,0.00,,,0.02,Wunderground v.1.15,2013-11-21 17:07:00,
2013-11-21 12:13:00,47.8,45.9,30.45,ESE,109,1.0,2.0,93,0.00,,,0.02,Wunderground v.1.15,2013-11-21 17:13:00,
2013-11-21 12:19:00,47.3,45.7,30.45,ESE,119,1.0,2.0,94,0.00,,,0.02,Wunderground v.1.15,2013-11-21 17:19:00,
2013-11-21 12:25:00,47.1,45.5,30.45,ESE,109,1.0,1.0,94,0.00,,,0.02,Wunderground v.1.15,2013-11-21 17:25:00,
2013-11-21 12:30:00,46.9,45.3,30.46,ESE,109,0.0,0.0,94,0.00,,,0.02,Wunderground v.1.15,2013-11-21 17:30:00,
2013-11-21 12:36:00,46.7,45.1,30.45,ESE,109,0.0,0.0,94,0.00,,,0.02,Wunderground v.1.15,2013-11-21 17:36:00,
2013-11-21 12:41:00,46.7,45.3,30.45,ESE,109,0.0,0.0,95,0.00,,,0.03,Wunderground v.1.15,2013-11-21 17:41:00,
2013-11-21 12:49:00,46.9,45.5,30.44,ESE,109,0.0,0.0,95,0.00,,,0.03,Wunderground v.1.15,2013-11-21 17:49:00,
2013-11-21 12:54:00,47.1,45.7,30.44,ESE,109,0.0,0.0,95,0.00,,,0.03,Wunderground v.1.15,2013-11-21 17:54:00,
2013-11-21 12:59:00,47.2,46.1,30.44,ESE,109,0.0,2.0,96,0.00,,,0.03,Wunderground v.1.15,2013-11-21 17:59:00,
2013-11-21 13:04:00,47.4,46.3,30.43,ESE,109,0.0,1.0,96,0.00,,,0.04,Wunderground v.1.15,2013-11-21 18:04:00,
2013-11-21 13:10:00,47.2,45.8,30.44,ESE,109,0.0,0.0,95,0.00,,,0.04,Wunderground v.1.15,2013-11-21 18:10:00,
2013-11-21 13:16:00,47.0,45.6,30.44,NNE,16,0.0,1.0,95,0.00,,,0.04,Wunderground v.1.15,2013-11-21 18:16:00,
2013-11-21 13:22:00,47.0,45.6,30.43,NNE,16,0.0,0.0,95,0.00,,,0.04,Wunderground v.1.15,2013-11-21 18:22:00,
2013-11-21 13:27:00,47.0,45.6,30.43,NNE,29,0.0,2.0,95,0.00,,,0.04,Wunderground v.1.15,2013-11-21 18:27:00,
2013-11-21 13:33:00,47.0,45.6,30.43,NNE,29,0.0,0.0,95,0.00,,,0.05,Wunderground v.1.15,2013-11-21 18:33:00,
2013-11-21 13:39:00,47.1,46.0,30.43,ENE,63,1.0,2.0,96,0.00,,,0.05,Wunderground v.1.15,2013-11-21 18:39:00,
2013-11-21 13:44:00,47.1,46.0,30.42,ENE,63,1.0,2.0,96,0.00,,,0.05,Wunderground v.1.15,2013-11-21 18:44:00,
2013-11-21 13:50:00,47.2,46.1,30.42,ENE,63,0.0,1.0,96,0.04,,,0.06,Wunderground v.1.15,2013-11-21 18:50:00,
2013-11-21 13:56:00,47.4,46.3,30.42,ENE,63,0.0,1.0,96,0.04,,,0.06,Wunderground v.1.15,2013-11-21 18:56:00,
2013-11-21 14:01:00,47.6,46.5,30.41,ENE,63,0.0,0.0,96,0.04,,,0.06,Wunderground v.1.15,2013-11-21 19:01:00,
2013-11-21 14:07:00,48.0,46.9,30.41,ENE,63,0.0,1.0,96,0.00,,,0.06,Wunderground v.1.15,2013-11-21 19:07:00,
2013-11-21 14:12:00,48.2,47.1,30.41,ENE,63,0.0,0.0,96,0.00,,,0.06,Wunderground v.1.15,2013-11-21 19:12:00,
2013-11-21 14:18:00,48.5,47.4,30.41,ENE,63,0.0,2.0,96,0.00,,,0.06,Wunderground v.1.15,2013-11-21 19:18:00,
2013-11-21 14:23:00,48.5,47.4,30.41,ENE,63,0.0,1.0,96,0.00,,,0.06,Wunderground v.1.15,2013-11-21 19:23:00,
2013-11-21 14:29:00,48.4,47.3,30.41,ENE,63,0.0,1.0,96,0.00,,,0.06,Wunderground v.1.15,2013-11-21 19:29:00,
2013-11-21 14:34:00,48.3,47.2,30.41,ENE,63,0.0,1.0,96,0.00,,,0.06,Wunderground v.1.15,2013-11-21 19:34:00,
2013-11-21 14:40:00,48.1,47.0,30.40,ENE,63,0.0,0.0,96,0.00,,,0.06,Wunderground v.1.15,2013-11-21 19:40:00,
2013-11-21 14:48:00,48.0,46.9,30.40,ENE,63,0.0,0.0,96,0.00,,,0.06,Wunderground v.1.15,2013-11-21 19:48:00,
2013-11-21 14:54:00,48.1,47.0,30.40,ENE,63,0.0,0.0,96,0.00,,,0.07,Wunderground v.1.15,2013-11-21 19:54:00,
2013-11-21 15:00:00,48.2,47.1,30.40,ENE,63,0.0,0.0,96,0.00,,,0.07,Wunderground v.1.15,2013-11-21 20:00:00,
2013-11-21 15:06:00,48.3,47.2,30.40,ENE,63,0.0,0.0,96,0.05,,,0.08,Wunderground v.1.15,2013-11-21 20:06:00,
2013-11-21 15:12:00,48.3,47.2,30.40,ENE,63,0.0,0.0,96,0.05,,,0.08,Wunderground v.1.15,2013-11-21 20:12:00,
2013-11-21 15:18:00,48.2,47.1,30.40,ENE,63,0.0,0.0,96,0.05,,,0.08,Wunderground v.1.15,2013-11-21 20:18:00,
2013-11-21 15:23:00,48.1,47.0,30.40,ENE,63,0.0,0.0,96,0.00,,,0.08,Wunderground v.1.15,2013-11-21 20:23:00,
2013-11-21 15:28:00,48.2,47.1,30.40,ENE,63,0.0,0.0,96,0.00,,,0.08,Wunderground v.1.15,2013-11-21 20:28:00,
2013-11-21 15:34:00,48.2,47.1,30.40,ENE,63,0.0,1.0,96,0.00,,,0.08,Wunderground v.1.15,2013-11-21 20:34:00,
2013-11-21 15:40:00,48.1,47.0,30.40,ENE,63,0.0,0.0,96,0.00,,,0.08,Wunderground v.1.15,2013-11-21 20:40:00,
2013-11-21 15:48:00,48.2,47.4,30.40,ENE,63,0.0,0.0,97,0.00,,,0.08,Wunderground v.1.15,2013-11-21 20:48:00,
2013-11-21 15:54:00,48.2,47.4,30.40,ENE,63,0.0,0.0,97,0.00,,,0.08,Wunderground v.1.15,2013-11-21 20:54:00,
2013-11-21 16:00:00,48.3,47.5,30.41,ENE,63,0.0,0.0,97,0.00,,,0.08,Wunderground v.1.15,2013-11-21 21:00:00,
2013-11-21 16:06:00,48.3,47.5,30.41,ENE,63,0.0,0.0,97,0.00,,,0.08,Wunderground v.1.15,2013-11-21 21:06:00,
2013-11-21 16:11:00,48.2,47.1,30.41,ENE,63,0.0,0.0,96,0.00,,,0.08,Wunderground v.1.15,2013-11-21 21:11:00,
2013-11-21 16:16:00,48.2,47.1,30.41,ENE,63,0.0,0.0,96,0.00,,,0.08,Wunderground v.1.15,2013-11-21 21:16:00,
2013-11-21 16:22:00,48.1,47.0,30.41,ENE,63,0.0,0.0,96,0.00,,,0.08,Wunderground v.1.15,2013-11-21 21:22:00,
2013-11-21 16:28:00,48.1,47.0,30.41,ENE,63,0.0,0.0,96,0.00,,,0.08,Wunderground v.1.15,2013-11-21 21:28:00,
2013-11-21 16:34:00,48.1,47.3,30.41,ENE,63,0.0,1.0,97,0.00,,,0.08,Wunderground v.1.15,2013-11-21 21:34:00,
2013-11-21 16:39:00,48.1,47.3,30.41,ENE,63,0.0,1.0,97,0.00,,,0.08,Wunderground v.1.15,2013-11-21 21:39:00,
2013-11-21 16:45:00,47.9,46.8,30.41,ENE,63,0.0,0.0,96,0.00,,,0.08,Wunderground v.1.15,2013-11-21 21:45:00,
2013-11-21 16:50:00,47.9,47.1,30.41,ENE,63,0.0,0.0,97,0.00,,,0.08,Wunderground v.1.15,2013-11-21 21:50:00,
2013-11-21 16:56:00,48.0,47.2,30.41,ENE,63,0.0,1.0,97,0.00,,,0.08,Wunderground v.1.15,2013-11-21 21:56:00,
2013-11-21 17:02:00,48.0,47.2,30.41,ENE,63,0.0,0.0,97,0.00,,,0.08,Wunderground v.1.15,2013-11-21 22:02:00,
2013-11-21 17:07:00,48.0,47.2,30.41,ENE,63,0.0,0.0,97,0.00,,,0.08,Wunderground v.1.15,2013-11-21 22:07:00,
2013-11-21 17:13:00,48.1,47.3,30.41,ENE,63,0.0,0.0,97,0.00,,,0.08,Wunderground v.1.15,2013-11-21 22:13:00,
2013-11-21 17:18:00,48.1,47.3,30.41,ENE,63,0.0,0.0,97,0.00,,,0.08,Wunderground v.1.15,2013-11-21 22:18:00,
2013-11-21 17:24:00,48.1,47.3,30.42,ENE,63,0.0,0.0,97,0.00,,,0.08,Wunderground v.1.15,2013-11-21 22:24:00,
2013-11-21 17:30:00,48.1,47.3,30.42,ENE,63,0.0,0.0,97,0.00,,,0.08,Wunderground v.1.15,2013-11-21 22:30:00,
2013-11-21 17:35:00,48.1,47.3,30.42,ENE,63,0.0,0.0,97,0.00,,,0.08,Wunderground v.1.15,2013-11-21 22:35:00,
2013-11-21 17:40:00,48.1,47.3,30.42,ENE,63,0.0,0.0,97,0.00,,,0.08,Wunderground v.1.15,2013-11-21 22:40:00,
2013-11-21 17:48:00,48.1,47.3,30.42,ENE,63,0.0,0.0,97,0.00,,,0.08,Wunderground v.1.15,2013-11-21 22:48:00,
2013-11-21 17:54:00,48.1,47.3,30.43,ENE,63,0.0,0.0,97,0.00,,,0.08,Wunderground v.1.15,2013-11-21 22:54:00,
2013-11-21 17:59:00,48.0,47.2,30.43,ENE,63,0.0,0.0,97,0.00,,,0.08,Wunderground v.1.15,2013-11-21 22:59:00,
2013-11-21 18:05:00,48.0,47.2,30.43,ENE,63,0.0,0.0,97,0.00,,,0.08,Wunderground v.1.15,2013-11-21 23:05:00,
2013-11-21 18:10:00,48.0,47.2,30.43,ENE,63,0.0,0.0,97,0.00,,,0.08,Wunderground v.1.15,2013-11-21 23:10:00,
2013-11-21 18:16:00,47.9,47.1,30.43,ENE,63,0.0,0.0,97,0.00,,,0.08,Wunderground v.1.15,2013-11-21 23:16:00,
2013-11-21 18:22:00,47.9,47.1,30.43,ENE,63,0.0,0.0,97,0.00,,,0.08,Wunderground v.1.15,2013-11-21 23:22:00,
2013-11-21 18:28:00,47.9,47.1,30.43,ENE,63,0.0,0.0,97,0.00,,,0.08,Wunderground v.1.15,2013-11-21 23:28:00,
2013-11-21 18:33:00,47.9,47.1,30.43,ENE,63,0.0,0.0,97,0.00,,,0.08,Wunderground v.1.15,2013-11-21 23:33:00,
2013-11-21 18:39:00,48.0,47.2,30.43,ENE,63,0.0,0.0,97,0.00,,,0.08,Wunderground v.1.15,2013-11-21 23:39:00,
2013-11-21 18:44:00,48.0,47.2,30.43,ENE,63,0.0,0.0,97,0.00,,,0.08,Wunderground v.1.15,2013-11-21 23:44:00,
2013-11-21 18:50:00,48.0,47.2,30.43,ENE,63,0.0,0.0,97,0.00,,,0.08,Wunderground v.1.15,2013-11-21 23:50:00,
2013-11-21 18:56:00,48.0,47.2,30.42,ENE,63,0.0,1.0,97,0.00,,,0.09,Wunderground v.1.15,2013-11-21 23:56:00,
2013-11-21 19:01:00,48.1,47.3,30.43,ENE,63,0.0,0.0,97,0.00,,,0.09,Wunderground v.1.15,2013-11-22 00:01:00,
2013-11-21 19:07:00,48.1,47.3,30.43,ENE,63,0.0,0.0,97,0.00,,,0.09,Wunderground v.1.15,2013-11-22 00:07:00,
2013-11-21 19:12:00,48.1,47.3,30.43,ENE,63,0.0,0.0,97,0.00,,,0.09,Wunderground v.1.15,2013-11-22 00:12:00,
2013-11-21 19:18:00,48.2,47.4,30.43,ENE,63,0.0,0.0,97,0.00,,,0.09,Wunderground v.1.15,2013-11-22 00:18:00,
2013-11-21 19:23:00,48.2,47.4,30.43,ENE,63,0.0,0.0,97,0.00,,,0.09,Wunderground v.1.15,2013-11-22 00:23:00,
2013-11-21 19:29:00,48.2,47.4,30.43,ENE,63,0.0,0.0,97,0.00,,,0.09,Wunderground v.1.15,2013-11-22 00:29:00,
2013-11-21 19:34:00,48.2,47.4,30.43,ENE,63,0.0,0.0,97,0.00,,,0.09,Wunderground v.1.15,2013-11-22 00:34:00,
2013-11-21 19:40:00,48.2,47.4,30.43,ENE,63,0.0,0.0,97,0.00,,,0.09,Wunderground v.1.15,2013-11-22 00:40:00,
2013-11-21 19:45:00,48.3,47.5,30.43,ENE,63,0.0,0.0,97,0.00,,,0.09,Wunderground v.1.15,2013-11-22 00:45:00,
2013-11-21 19:51:00,48.5,47.7,30.43,ENE,63,0.0,0.0,97,0.00,,,0.09,Wunderground v.1.15,2013-11-22 00:51:00,
2013-11-21 19:57:00,49.1,48.3,30.43,NW,311,0.0,3.0,97,0.00,,,0.09,Wunderground v.1.15,2013-11-22 00:57:00,
2013-11-21 20:02:00,49.4,48.6,30.43,NNW,330,0.0,0.0,97,0.00,,,0.10,Wunderground v.1.15,2013-11-22 01:02:00,
2013-11-21 20:08:00,49.5,48.7,30.43,WNW,288,0.0,2.0,97,0.00,,,0.10,Wunderground v.1.15,2013-11-22 01:08:00,
2013-11-21 20:13:00,49.4,48.6,30.43,WNW,288,0.0,0.0,97,0.00,,,0.10,Wunderground v.1.15,2013-11-22 01:13:00,
2013-11-21 20:18:00,49.4,48.6,30.43,WNW,288,0.0,0.0,97,0.00,,,0.10,Wunderground v.1.15,2013-11-22 01:18:00,
2013-11-21 20:24:00,49.2,48.4,30.43,WNW,288,0.0,0.0,97,0.00,,,0.10,Wunderground v.1.15,2013-11-22 01:24:00,
2013-11-21 20:30:00,49.0,48.2,30.42,WNW,288,0.0,0.0,97,0.00,,,0.10,Wunderground v.1.15,2013-11-22 01:30:00,
2013-11-21 20:36:00,49.0,48.2,30.42,WNW,288,0.0,1.0,97,0.00,,,0.10,Wunderground v.1.15,2013-11-22 01:36:00,
2013-11-21 20:42:00,49.0,48.2,30.42,WNW,288,0.0,0.0,97,0.00,,,0.10,Wunderground v.1.15,2013-11-22 01:42:00,
2013-11-21 20:48:00,49.3,48.5,30.42,WNW,288,0.0,0.0,97,0.00,,,0.10,Wunderground v.1.15,2013-11-22 01:48:00,
2013-11-21 20:54:00,49.1,48.3,30.43,WNW,288,0.0,1.0,97,0.00,,,0.10,Wunderground v.1.15,2013-11-22 01:54:00,
2013-11-21 21:00:00,49.0,48.2,30.43,WNW,288,0.0,0.0,97,0.00,,,0.10,Wunderground v.1.15,2013-11-22 02:00:00,
2013-11-21 21:06:00,49.0,48.2,30.43,WNW,288,0.0,0.0,97,0.00,,,0.10,Wunderground v.1.15,2013-11-22 02:06:00,
2013-11-21 21:09:00,49.0,48.2,30.43,WNW,288,0.0,0.0,97,0.00,,,0.10,Wunderground v.1.15,2013-11-22 02:09:00,
2013-11-21 21:10:00,49.0,48.2,30.43,WNW,288,0.0,0.0,97,0.00,,,0.10,Wunderground v.1.15,2013-11-22 02:10:00,
2013-11-21 21:11:00,49.0,48.2,30.43,WNW,288,0.0,0.0,97,0.00,,,0.10,Wunderground v.1.15,2013-11-22 02:11:00,
2013-11-21 21:13:00,49.0,48.2,30.43,WNW,288,0.0,0.0,97,0.00,,,0.10,Wunderground v.1.15,2013-11-22 02:13:00,
2013-11-21 21:14:00,49.0,48.2,30.43,WNW,288,0.0,0.0,97,0.00,,,0.10,Wunderground v.1.15,2013-11-22 02:14:00,
2013-11-21 21:20:00,49.1,48.3,30.43,WNW,288,0.0,0.0,97,0.00,,,0.10,Wunderground v.1.15,2013-11-22 02:20:00,
2013-11-21 21:26:00,49.2,48.4,30.43,WNW,288,0.0,0.0,97,0.00,,,0.10,Wunderground v.1.15,2013-11-22 02:26:00,
2013-11-21 21:31:00,49.1,48.3,30.43,WNW,288,0.0,0.0,97,0.00,,,0.10,Wunderground v.1.15,2013-11-22 02:31:00,
2013-11-21 21:34:00,49.1,48.3,30.43,WNW,288,0.0,0.0,97,0.00,,,0.10,Wunderground v.1.15,2013-11-22 02:34:00,
2013-11-21 21:39:00,49.1,48.3,30.43,WNW,288,0.0,0.0,97,0.00,,,0.10,Wunderground v.1.15,2013-11-22 02:39:00,
2013-11-21 21:44:00,49.1,48.3,30.43,WNW,288,0.0,0.0,97,0.00,,,0.10,Wunderground v.1.15,2013-11-22 02:44:00,
2013-11-21 21:50:00,49.1,48.3,30.43,WNW,288,0.0,0.0,97,0.00,,,0.10,Wunderground v.1.15,2013-11-22 02:50:00,
2013-11-21 21:56:00,49.2,48.4,30.43,WNW,288,0.0,1.0,97,0.22,,,0.12,Wunderground v.1.15,2013-11-22 02:56:00,
2013-11-21 22:01:00,49.3,48.5,30.43,WNW,288,0.0,0.0,97,0.08,,,0.12,Wunderground v.1.15,2013-11-22 03:01:00,
2013-11-21 22:07:00,49.7,48.9,30.43,WNW,288,0.0,0.0,97,0.04,,,0.12,Wunderground v.1.15,2013-11-22 03:07:00,
2013-11-21 22:13:00,49.8,49.0,30.43,WNW,288,0.0,0.0,97,0.00,,,0.12,Wunderground v.1.15,2013-11-22 03:13:00,
2013-11-21 22:19:00,49.7,48.9,30.42,WNW,288,0.0,0.0,97,0.00,,,0.12,Wunderground v.1.15,2013-11-22 03:19:00,
2013-11-21 22:24:00,49.6,48.8,30.42,WNW,288,0.0,0.0,97,0.00,,,0.12,Wunderground v.1.15,2013-11-22 03:24:00,
2013-11-21 22:29:00,49.5,48.7,30.42,WNW,288,0.0,0.0,97,0.00,,,0.12,Wunderground v.1.15,2013-11-22 03:29:00,
2013-11-21 22:35:00,49.5,48.7,30.42,WNW,288,0.0,0.0,97,0.00,,,0.12,Wunderground v.1.15,2013-11-22 03:35:00,
2013-11-21 22:41:00,49.6,48.8,30.42,WNW,288,0.0,0.0,97,0.00,,,0.12,Wunderground v.1.15,2013-11-22 03:41:00,
2013-11-21 22:48:00,49.8,49.0,30.42,WNW,288,0.0,0.0,97,0.00,,,0.12,Wunderground v.1.15,2013-11-22 03:48:00,
2013-11-21 22:54:00,49.8,49.0,30.42,WNW,288,0.0,0.0,97,0.00,,,0.12,Wunderground v.1.15,2013-11-22 03:54:00,
2013-11-21 22:59:00,49.6,48.8,30.42,WNW,288,0.0,1.0,97,0.00,,,0.12,Wunderground v.1.15,2013-11-22 03:59:00,
2013-11-21 23:05:00,49.6,48.8,30.42,WNW,288,0.0,0.0,97,0.00,,,0.13,Wunderground v.1.15,2013-11-22 04:05:00,
2013-11-21 23:11:00,49.5,48.7,30.42,WNW,288,0.0,0.0,97,0.00,,,0.13,Wunderground v.1.15,2013-11-22 04:11:00,
2013-11-21 23:17:00,49.4,48.6,30.42,WNW,288,0.0,0.0,97,0.00,,,0.13,Wunderground v.1.15,2013-11-22 04:17:00,
2013-11-21 23:22:00,49.4,48.6,30.43,WNW,288,0.0,0.0,97,0.00,,,0.14,Wunderground v.1.15,2013-11-22 04:22:00,
2013-11-21 23:28:00,49.3,48.5,30.42,WNW,288,0.0,0.0,97,0.00,,,0.14,Wunderground v.1.15,2013-11-22 04:28:00,
2013-11-21 23:34:00,49.2,48.4,30.42,WNW,288,0.0,0.0,97,0.00,,,0.14,Wunderground v.1.15,2013-11-22 04:34:00,
2013-11-21 23:39:00,49.2,48.4,30.42,WNW,288,0.0,0.0,97,0.00,,,0.14,Wunderground v.1.15,2013-11-22 04:39:00,
2013-11-21 23:45:00,49.1,48.3,30.42,WNW,288,0.0,0.0,97,0.00,,,0.14,Wunderground v.1.15,2013-11-22 04:45:00,
2013-11-21 23:50:00,49.1,48.3,30.42,WNW,288,0.0,0.0,97,0.00,,,0.14,Wunderground v.1.15,2013-11-22 04:50:00,
2013-11-21 23:56:00,49.1,48.3,30.42,WNW,288,0.0,0.0,97,0.00,,,0.14,Wunderground v.1.15,2013-11-22 04:56:00,